createdAt,value
2023-02-19T00:01:24.126Z,10.73
2023-02-19T00:03:51.909Z,9.40
2023-02-19T00:06:18.096Z,8.18
2023-02-19T00:08:44.304Z,4.90
2023-02-19T00:11:10.764Z,4.97
2023-02-19T00:13:37.030Z,6.93
2023-02-19T00:16:03.231Z,4.38
2023-02-19T00:18:29.404Z,6.55
2023-02-19T00:20:55.591Z,6.18
2023-02-19T00:23:21.796Z,6.35
2023-02-19T00:25:47.955Z,6.35
2023-02-19T00:28:14.132Z,6.10
2023-02-19T00:30:40.299Z,5.75
2023-02-19T00:33:06.494Z,5.28
2023-02-19T00:35:32.683Z,7.22
2023-02-19T00:37:58.838Z,6.25
2023-02-19T00:40:25.001Z,6.07
2023-02-19T00:42:51.141Z,4.35
2023-02-19T00:45:18.500Z,5.78
2023-02-19T00:47:44.691Z,6.65
2023-02-19T00:50:10.822Z,5.70
2023-02-19T00:52:36.970Z,5.65
2023-02-19T00:55:03.130Z,4.85
2023-02-19T00:57:29.388Z,4.00
2023-02-19T00:59:55.542Z,4.82
2023-02-19T01:02:21.685Z,5.38
2023-02-19T01:04:47.910Z,3.85
2023-02-19T01:07:14.061Z,4.68
2023-02-19T01:09:40.481Z,4.05
2023-02-19T01:12:06.680Z,3.42
2023-02-19T01:14:32.879Z,4.05
2023-02-19T01:16:59.089Z,4.38
2023-02-19T01:19:25.287Z,3.60
2023-02-19T01:21:51.509Z,4.65
2023-02-19T01:24:17.697Z,3.50
2023-02-19T01:26:43.825Z,3.78
2023-02-19T01:29:09.978Z,3.72
2023-02-19T01:31:36.158Z,4.30
2023-02-19T01:34:02.407Z,2.63
2023-02-19T01:36:28.623Z,4.95
2023-02-19T01:38:54.797Z,4.63
2023-02-19T01:41:21.006Z,4.25
2023-02-19T01:43:47.240Z,4.07
2023-02-19T01:46:13.407Z,3.65
2023-02-19T01:48:39.550Z,3.70
2023-02-19T01:51:05.691Z,4.03
2023-02-19T01:53:33.619Z,3.25
2023-02-19T01:55:59.822Z,3.63
2023-02-19T01:58:26.009Z,3.92
2023-02-19T02:00:52.208Z,3.72
2023-02-19T02:03:18.460Z,3.05
2023-02-19T02:05:44.601Z,4.70
2023-02-19T02:08:10.746Z,5.85
2023-02-19T02:10:36.978Z,2.50
2023-02-19T02:13:03.144Z,2.65
2023-02-19T02:15:30.318Z,3.25
2023-02-19T02:17:56.488Z,2.53
2023-02-19T02:20:22.675Z,2.22
2023-02-19T02:22:48.897Z,2.40
2023-02-19T02:25:15.313Z,2.75
2023-02-19T02:27:41.497Z,2.65
2023-02-19T02:30:07.650Z,1.92
2023-02-19T02:32:33.865Z,2.92
2023-02-19T02:35:00.043Z,2.40
2023-02-19T02:37:26.179Z,3.05
2023-02-19T02:39:52.378Z,2.08
2023-02-19T02:42:18.560Z,2.08
2023-02-19T02:44:44.784Z,2.80
2023-02-19T02:47:10.987Z,2.08
2023-02-19T02:49:37.158Z,2.50
2023-02-19T02:52:03.319Z,4.35
2023-02-19T02:54:29.427Z,1.73
2023-02-19T02:56:55.637Z,1.23
2023-02-19T02:59:21.802Z,2.75
2023-02-19T03:01:47.984Z,2.20
2023-02-19T03:04:14.173Z,3.58
2023-02-19T03:06:40.312Z,2.38
2023-02-19T03:09:06.486Z,3.70
2023-02-19T03:11:32.684Z,2.40
2023-02-19T03:13:58.798Z,2.65
2023-02-19T03:16:25.013Z,2.80
2023-02-19T03:18:51.220Z,1.77
2023-02-19T03:21:17.402Z,4.03
2023-02-19T03:23:43.620Z,3.38
2023-02-19T03:26:09.768Z,2.05
2023-02-19T03:28:35.900Z,1.98
2023-02-19T03:31:02.160Z,3.17
2023-02-19T03:33:28.372Z,2.85
2023-02-19T03:35:54.569Z,3.58
2023-02-19T03:38:20.758Z,2.85
2023-02-19T03:40:46.951Z,3.88
2023-02-19T03:43:13.147Z,3.88
2023-02-19T03:45:39.377Z,3.58
2023-02-19T03:48:05.534Z,4.38
2023-02-19T03:50:31.792Z,4.57
2023-02-19T03:52:58.345Z,4.88
2023-02-19T03:55:24.553Z,5.72
2023-02-19T03:57:50.742Z,4.32
2023-02-19T04:00:16.888Z,6.57
2023-02-19T04:02:43.000Z,5.55
2023-02-19T04:05:09.169Z,6.03
2023-02-19T04:07:35.363Z,7.32
2023-02-19T04:10:01.506Z,4.95
2023-02-19T04:12:27.709Z,4.97
2023-02-19T04:14:53.846Z,5.80
2023-02-19T04:17:19.972Z,4.82
2023-02-19T04:19:46.110Z,5.78
2023-02-19T04:22:12.236Z,5.97
2023-02-19T04:24:38.462Z,5.53
2023-02-19T04:27:04.676Z,5.68
2023-02-19T04:29:30.833Z,5.28
2023-02-19T04:31:57.058Z,5.72
2023-02-19T04:34:23.188Z,5.38
2023-02-19T04:36:49.375Z,5.97
2023-02-19T04:39:15.700Z,3.83
2023-02-19T04:41:41.836Z,6.72
2023-02-19T04:44:08.017Z,5.85
2023-02-19T04:46:34.158Z,8.50
2023-02-19T04:49:00.319Z,5.90
2023-02-19T04:51:26.449Z,3.97
2023-02-19T04:53:52.601Z,6.00
2023-02-19T04:56:18.751Z,5.40
2023-02-19T04:58:44.904Z,5.15
2023-02-19T05:01:11.457Z,7.95
2023-02-19T05:03:37.841Z,4.35
2023-02-19T05:06:03.971Z,4.78
2023-02-19T05:08:30.108Z,5.90
2023-02-19T05:10:56.233Z,6.40
2023-02-19T05:13:22.442Z,6.22
2023-02-19T05:15:49.719Z,5.63
2023-02-19T05:18:15.911Z,5.75
2023-02-19T05:20:42.098Z,5.75
2023-02-19T05:23:08.240Z,6.68
2023-02-19T05:25:34.465Z,5.57
2023-02-19T05:28:00.643Z,5.75
2023-02-19T05:30:26.820Z,6.75
2023-02-19T05:32:53.064Z,6.47
2023-02-19T05:35:19.203Z,6.22
2023-02-19T05:37:45.356Z,5.80
2023-02-19T05:40:11.544Z,5.10
2023-02-19T05:42:37.713Z,5.68
2023-02-19T05:45:03.833Z,6.35
2023-02-19T05:47:30.009Z,5.22
2023-02-19T05:49:56.206Z,5.95
2023-02-19T05:52:22.398Z,5.65
2023-02-19T05:54:48.526Z,6.72
2023-02-19T05:57:14.691Z,6.93
2023-02-19T05:59:40.823Z,6.05
2023-02-19T06:02:09.977Z,5.65
2023-02-19T06:04:36.362Z,6.18
2023-02-19T06:07:02.488Z,5.70
2023-02-19T06:09:28.676Z,4.93
2023-02-19T06:11:54.916Z,8.27
2023-02-19T06:14:21.077Z,6.80
2023-02-19T06:16:47.287Z,6.25
2023-02-19T06:19:13.497Z,7.65
2023-02-19T06:21:39.663Z,5.53
2023-02-19T06:24:05.863Z,6.45
2023-02-19T06:26:32.045Z,7.60
2023-02-19T06:28:58.207Z,7.10
2023-02-19T06:31:24.489Z,5.75
2023-02-19T06:33:50.892Z,5.30
2023-02-19T06:36:17.204Z,7.47
2023-02-19T06:38:43.380Z,7.72
2023-02-19T06:41:09.880Z,6.47
2023-02-19T06:43:36.212Z,6.10
2023-02-19T06:46:02.393Z,7.35
2023-02-19T06:48:28.613Z,5.32
2023-02-19T06:50:57.540Z,4.80
2023-02-19T06:53:23.701Z,6.35
2023-02-19T06:55:49.818Z,5.82
2023-02-19T06:58:16.032Z,6.40
2023-02-19T07:00:44.167Z,6.32
2023-02-19T07:03:10.406Z,5.30
2023-02-19T07:05:36.570Z,4.63
2023-02-19T07:08:02.722Z,4.82
2023-02-19T07:10:28.900Z,6.45
2023-02-19T07:12:55.060Z,4.43
2023-02-19T07:15:21.250Z,7.55
2023-02-19T07:17:47.416Z,5.35
2023-02-19T07:20:13.621Z,5.05
2023-02-19T07:22:39.804Z,6.18
2023-02-19T07:25:05.941Z,5.13
2023-02-19T07:27:32.150Z,5.78
2023-02-19T07:29:58.323Z,4.88
2023-02-19T07:32:24.456Z,4.60
2023-02-19T07:34:50.629Z,6.00
2023-02-19T07:37:16.772Z,4.10
2023-02-19T07:39:42.985Z,5.32
2023-02-19T07:42:09.123Z,5.93
2023-02-19T07:44:35.327Z,5.25
2023-02-19T07:47:01.502Z,4.43
2023-02-19T07:49:27.692Z,7.50
2023-02-19T07:51:53.898Z,4.93
2023-02-19T07:54:20.026Z,5.53
2023-02-19T07:56:46.193Z,4.32
2023-02-19T07:59:12.356Z,5.35
2023-02-19T08:01:38.562Z,6.13
2023-02-19T08:04:04.710Z,6.25
2023-02-19T08:06:30.897Z,4.18
2023-02-19T08:08:57.170Z,5.68
2023-02-19T08:11:23.373Z,5.72
2023-02-19T08:13:49.551Z,4.90
2023-02-19T08:16:21.770Z,2.97
2023-02-19T08:18:53.050Z,7.13
2023-02-19T08:21:19.250Z,4.28
2023-02-19T08:23:45.384Z,6.10
2023-02-19T08:26:11.621Z,3.80
2023-02-19T08:28:37.802Z,4.93
2023-02-19T08:31:04.002Z,4.45
2023-02-19T08:33:30.157Z,4.15
2023-02-19T08:35:56.303Z,5.50
2023-02-19T08:38:22.490Z,5.57
2023-02-19T08:40:48.691Z,6.07
2023-02-19T08:43:14.893Z,8.15
2023-02-19T08:45:41.094Z,5.32
2023-02-19T08:48:07.286Z,3.88
2023-02-19T08:50:33.416Z,6.43
2023-02-19T08:52:59.691Z,5.25
2023-02-19T08:55:25.863Z,3.65
2023-02-19T08:57:52.154Z,6.10
2023-02-19T09:00:18.353Z,3.95
2023-02-19T09:02:44.523Z,4.68
2023-02-19T09:05:10.731Z,4.35
2023-02-19T09:07:36.934Z,4.85
2023-02-19T09:10:03.080Z,5.43
2023-02-19T09:12:29.217Z,4.32
2023-02-19T09:14:55.426Z,6.47
2023-02-19T09:17:21.586Z,4.63
2023-02-19T09:19:50.001Z,4.07
2023-02-19T09:22:16.907Z,4.07
2023-02-19T09:24:43.098Z,5.93
2023-02-19T09:27:09.284Z,6.90
2023-02-19T09:29:35.440Z,5.55
2023-02-19T09:32:01.614Z,6.00
2023-02-19T09:34:27.789Z,4.90
2023-02-19T09:36:53.944Z,4.72
2023-02-19T09:39:20.096Z,4.68
2023-02-19T09:41:46.283Z,4.68
2023-02-19T09:44:12.420Z,8.18
2023-02-19T09:46:38.561Z,3.65
2023-02-19T09:49:04.687Z,3.42
2023-02-19T09:51:30.856Z,3.50
2023-02-19T09:53:57.021Z,6.28
2023-02-19T09:56:23.155Z,4.65
2023-02-19T09:58:49.307Z,5.57
2023-02-19T10:01:15.536Z,5.40
2023-02-19T10:03:41.792Z,5.30
2023-02-19T10:06:11.163Z,3.88
2023-02-19T10:08:37.561Z,5.25
2023-02-19T10:11:03.720Z,7.60
2023-02-19T10:13:29.911Z,4.70
2023-02-19T10:15:56.083Z,5.07
2023-02-19T10:18:22.274Z,2.90
2023-02-19T10:20:48.504Z,3.17
2023-02-19T10:23:14.665Z,5.55
2023-02-19T10:25:40.820Z,3.78
2023-02-19T10:28:08.513Z,4.10
2023-02-19T10:30:34.696Z,6.88
2023-02-19T10:33:00.894Z,3.38
2023-02-19T10:35:27.062Z,3.72
2023-02-19T10:37:53.260Z,3.70
2023-02-19T10:40:19.475Z,4.88
2023-02-19T10:42:45.642Z,4.38
2023-02-19T10:45:11.804Z,4.35
2023-02-19T10:47:37.967Z,4.18
2023-02-19T10:50:04.792Z,3.95
2023-02-19T10:52:31.043Z,5.22
2023-02-19T10:54:57.221Z,5.82
2023-02-19T10:57:23.417Z,3.40
2023-02-19T10:59:49.562Z,5.30
2023-02-19T11:02:15.725Z,4.68
2023-02-19T11:04:42.098Z,5.07
2023-02-19T11:07:08.310Z,3.42
2023-02-19T11:09:34.493Z,4.47
2023-02-19T11:12:00.691Z,4.45
2023-02-19T11:14:26.996Z,3.95
2023-02-19T11:16:53.219Z,6.43
2023-02-19T11:19:19.450Z,4.60
2023-02-19T11:21:45.655Z,3.95
2023-02-19T11:24:11.831Z,4.70
2023-02-19T11:26:38.067Z,4.63
2023-02-19T11:29:04.323Z,4.70
2023-02-19T11:31:30.603Z,3.47
2023-02-19T11:33:56.811Z,3.50
2023-02-19T11:36:22.949Z,3.28
2023-02-19T11:38:49.156Z,2.72
2023-02-19T11:41:15.434Z,2.55
2023-02-19T11:43:41.570Z,2.58
2023-02-19T11:46:07.770Z,3.95
2023-02-19T11:48:33.923Z,3.13
2023-02-19T11:51:00.078Z,1.65
2023-02-19T11:53:26.291Z,6.57
2023-02-19T11:55:52.458Z,3.42
2023-02-19T11:58:18.625Z,2.50
2023-02-19T12:00:44.776Z,3.00
2023-02-19T12:03:10.930Z,3.72
2023-02-19T12:05:37.099Z,2.40
2023-02-19T12:08:03.316Z,2.67
2023-02-19T12:10:29.525Z,4.07
2023-02-19T12:12:55.697Z,4.28
2023-02-19T12:15:21.905Z,3.90
2023-02-19T12:17:48.080Z,7.15
2023-02-19T12:20:14.235Z,4.03
2023-02-19T12:22:40.377Z,3.50
2023-02-19T12:25:06.521Z,5.90
2023-02-19T12:27:32.694Z,4.28
2023-02-19T12:29:58.853Z,4.07
2023-02-19T12:32:24.971Z,6.05
2023-02-19T12:34:51.100Z,4.45
2023-02-19T12:37:17.283Z,5.03
2023-02-19T12:39:43.420Z,5.25
2023-02-19T12:42:09.559Z,5.07
2023-02-19T12:44:35.747Z,3.83
2023-02-19T12:47:01.910Z,4.65
2023-02-19T12:49:28.581Z,3.92
2023-02-19T12:51:54.773Z,6.35
2023-02-19T12:54:20.919Z,4.20
2023-02-19T12:56:47.118Z,5.68
2023-02-19T12:59:13.239Z,5.75
2023-02-19T13:01:39.429Z,3.42
2023-02-19T13:04:05.553Z,3.90
2023-02-19T13:06:31.734Z,3.78
2023-02-19T13:09:06.462Z,4.72
2023-02-19T13:11:35.091Z,2.63
2023-02-19T13:14:02.480Z,3.00
2023-02-19T13:16:28.667Z,3.20
2023-02-19T13:18:54.889Z,3.92
2023-02-19T13:21:21.077Z,4.50
2023-02-19T13:23:47.240Z,4.00
2023-02-19T13:26:13.663Z,4.70
2023-02-19T13:28:39.991Z,2.70
2023-02-19T13:31:06.280Z,5.43
2023-02-19T13:33:32.490Z,5.78
2023-02-19T13:36:00.997Z,4.28
2023-02-19T13:38:27.175Z,4.07
2023-02-19T13:40:53.366Z,5.30
2023-02-19T13:43:19.555Z,5.28
2023-02-19T13:45:45.771Z,4.40
2023-02-19T13:48:12.002Z,2.85
2023-02-19T13:50:38.125Z,6.32
2023-02-19T13:53:04.314Z,3.67
2023-02-19T13:55:30.454Z,6.28
2023-02-19T13:57:56.579Z,5.47
2023-02-19T14:00:22.756Z,2.70
2023-02-19T14:02:48.939Z,3.72
2023-02-19T14:05:15.117Z,5.70
2023-02-19T14:07:41.298Z,5.07
2023-02-19T14:10:07.468Z,5.43
2023-02-19T14:12:33.684Z,5.97
2023-02-19T14:14:59.881Z,4.28
2023-02-19T14:17:26.014Z,2.67
2023-02-19T14:19:52.178Z,6.60
2023-02-19T14:22:18.324Z,5.13
2023-02-19T14:24:44.540Z,5.63
2023-02-19T14:27:10.740Z,5.75
2023-02-19T14:29:36.969Z,3.92
2023-02-19T14:32:03.187Z,3.35
2023-02-19T14:34:29.350Z,6.43
2023-02-19T14:36:55.518Z,5.22
2023-02-19T14:39:21.711Z,3.33
2023-02-19T14:41:47.891Z,7.15
2023-02-19T14:44:14.121Z,3.13
2023-02-19T14:46:40.368Z,3.72
2023-02-19T14:49:06.557Z,5.78
2023-02-19T14:51:32.750Z,7.35
2023-02-19T14:53:58.953Z,4.45
2023-02-19T14:56:25.156Z,3.45
2023-02-19T14:58:51.333Z,4.78
2023-02-19T15:01:17.557Z,4.68
2023-02-19T15:03:43.726Z,3.13
2023-02-19T15:06:09.911Z,5.85
2023-02-19T15:08:36.102Z,3.13
2023-02-19T15:11:02.283Z,4.13
2023-02-19T15:13:28.521Z,5.97
2023-02-19T15:15:54.774Z,6.35
2023-02-19T15:18:20.947Z,4.63
2023-02-19T15:20:47.369Z,3.30
2023-02-19T15:23:13.573Z,6.43
2023-02-19T15:25:39.741Z,4.70
2023-02-19T15:28:05.932Z,5.45
2023-02-19T15:30:32.160Z,3.63
2023-02-19T15:32:58.402Z,4.70
2023-02-19T15:35:24.532Z,5.85
2023-02-19T15:37:50.679Z,7.15
2023-02-19T15:40:16.864Z,6.75
2023-02-19T15:42:43.112Z,4.78
2023-02-19T15:45:09.273Z,7.40
2023-02-19T15:47:35.439Z,8.70
2023-02-19T15:50:01.723Z,7.93
2023-02-19T15:52:27.962Z,10.57
2023-02-19T15:54:54.196Z,5.10
2023-02-19T15:57:20.375Z,5.72
2023-02-19T15:59:46.537Z,5.63
2023-02-19T16:02:12.734Z,5.97
2023-02-19T16:04:38.896Z,5.28
2023-02-19T16:07:05.016Z,2.63
2023-02-19T16:09:31.196Z,7.72
2023-02-19T16:11:57.398Z,3.90
2023-02-19T16:14:23.554Z,4.68
2023-02-19T16:16:49.726Z,9.13
2023-02-19T16:19:15.925Z,6.88
2023-02-19T16:21:45.078Z,5.15
2023-02-19T16:24:11.236Z,5.10
2023-02-19T16:26:37.383Z,4.97
2023-02-19T16:29:03.559Z,8.13
2023-02-19T16:31:29.817Z,6.25
2023-02-19T16:33:56.017Z,7.35
2023-02-19T16:36:22.208Z,8.23
2023-02-19T16:38:48.419Z,3.97
2023-02-19T16:41:14.587Z,10.13
2023-02-19T16:43:40.790Z,7.65
2023-02-19T16:46:07.041Z,14.88
2023-02-19T16:48:33.221Z,11.75
2023-02-19T16:50:59.407Z,10.63
2023-02-19T16:53:25.572Z,8.68
2023-02-19T16:55:51.775Z,12.15
2023-02-19T16:58:17.952Z,9.95
2023-02-19T17:00:44.156Z,8.98
2023-02-19T17:03:10.290Z,5.78
2023-02-19T17:05:36.439Z,12.82
2023-02-19T17:08:04.728Z,6.47
2023-02-19T17:10:30.864Z,8.82
2023-02-19T17:12:57.009Z,7.63
2023-02-19T17:15:23.217Z,4.85
2023-02-19T17:17:49.426Z,9.30
2023-02-19T17:20:15.606Z,8.68
2023-02-19T17:22:41.768Z,7.03
2023-02-19T17:25:07.959Z,6.93
2023-02-19T17:27:34.155Z,6.15
2023-02-19T17:30:00.397Z,8.90
2023-02-19T17:32:26.665Z,8.75
2023-02-19T17:34:52.901Z,7.25
2023-02-19T17:37:19.125Z,12.05
2023-02-19T17:39:45.409Z,7.63
2023-02-19T17:42:11.571Z,6.20
2023-02-19T17:44:37.764Z,8.60
2023-02-19T17:47:03.913Z,8.38
2023-02-19T17:49:30.087Z,10.73
2023-02-19T17:51:56.308Z,11.07
2023-02-19T17:54:22.433Z,10.93
2023-02-19T17:56:48.622Z,13.77
2023-02-19T17:59:15.972Z,11.68
2023-02-19T18:01:43.058Z,12.77
2023-02-19T18:04:09.322Z,10.45
2023-02-19T18:06:35.571Z,9.23
2023-02-19T18:09:01.778Z,10.73
2023-02-19T18:11:27.970Z,13.63
2023-02-19T18:13:54.102Z,7.13
2023-02-19T18:16:20.313Z,6.20
2023-02-19T18:18:46.472Z,8.40
2023-02-19T18:21:12.969Z,16.08
2023-02-19T18:23:39.633Z,15.77
2023-02-19T18:26:05.828Z,9.35
2023-02-19T18:28:32.903Z,9.75
2023-02-19T18:30:59.282Z,12.40
2023-02-19T18:33:25.501Z,9.80
2023-02-19T18:35:51.626Z,10.73
2023-02-19T18:38:17.835Z,11.43
2023-02-19T18:40:44.045Z,8.00
2023-02-19T18:43:10.196Z,6.68
2023-02-19T18:45:36.387Z,9.18
2023-02-19T18:48:02.535Z,8.07
2023-02-19T18:50:28.731Z,7.45
2023-02-19T18:52:54.904Z,14.30
2023-02-19T18:55:21.141Z,10.07
2023-02-19T18:57:47.446Z,13.48
2023-02-19T19:00:13.616Z,15.18
2023-02-19T19:02:49.108Z,9.40
2023-02-19T19:05:15.851Z,6.80
2023-02-19T19:07:42.035Z,7.72
2023-02-19T19:10:08.190Z,10.50
2023-02-19T19:12:34.319Z,6.72
2023-02-19T19:15:00.509Z,9.90
2023-02-19T19:17:26.678Z,10.13
2023-02-19T19:19:52.804Z,7.78
2023-02-19T19:22:18.960Z,11.13
2023-02-19T19:24:45.146Z,10.38
2023-02-19T19:27:11.339Z,11.60
2023-02-19T19:29:37.848Z,9.10
2023-02-19T19:32:04.055Z,12.38
2023-02-19T19:34:30.266Z,21.92
2023-02-19T19:36:56.424Z,13.82
2023-02-19T19:39:22.620Z,17.35
2023-02-19T19:41:48.796Z,20.88
2023-02-19T19:44:15.022Z,17.88
2023-02-19T19:46:41.232Z,13.55
2023-02-19T19:49:07.421Z,18.13
2023-02-19T19:51:33.600Z,18.88
2023-02-19T19:53:59.876Z,14.05
2023-02-19T19:56:26.049Z,14.82
2023-02-19T19:58:52.221Z,16.35
2023-02-19T20:01:18.497Z,11.30
2023-02-19T20:03:44.671Z,14.65
2023-02-19T20:06:10.856Z,15.00
2023-02-19T20:08:37.046Z,21.02
2023-02-19T20:11:03.228Z,12.55
2023-02-19T20:13:29.376Z,18.08
2023-02-19T20:15:55.734Z,19.75
2023-02-19T20:18:21.981Z,11.20
2023-02-19T20:20:48.179Z,16.17
2023-02-19T20:23:14.365Z,16.75
2023-02-19T20:25:40.560Z,22.20
2023-02-19T20:28:06.743Z,37.78
2023-02-19T20:30:32.978Z,21.30
2023-02-19T20:32:59.243Z,24.42
2023-02-19T20:35:26.483Z,15.60
2023-02-19T20:37:52.789Z,15.32
2023-02-19T20:40:18.980Z,12.75
2023-02-19T20:42:45.124Z,13.82
2023-02-19T20:45:11.323Z,11.52
2023-02-19T20:47:37.515Z,8.43
2023-02-19T20:50:03.655Z,9.68
2023-02-19T20:52:29.871Z,14.10
2023-02-19T20:54:56.131Z,11.23
2023-02-19T20:57:22.293Z,9.55
2023-02-19T20:59:48.595Z,18.90
2023-02-19T21:02:14.776Z,10.13
2023-02-19T21:04:40.943Z,12.48
2023-02-19T21:07:09.840Z,11.63
2023-02-19T21:09:36.028Z,8.75
2023-02-19T21:12:02.226Z,14.40
2023-02-19T21:14:28.401Z,15.75
2023-02-19T21:16:54.554Z,10.48
2023-02-19T21:19:23.615Z,13.63
2023-02-19T21:21:49.830Z,7.25
2023-02-19T21:24:16.035Z,8.52
2023-02-19T21:26:42.208Z,10.38
2023-02-19T21:29:08.360Z,15.05
2023-02-19T21:31:34.587Z,8.27
2023-02-19T21:34:00.735Z,10.02
2023-02-19T21:36:26.908Z,11.88
2023-02-19T21:38:53.113Z,10.43
2023-02-19T21:41:19.275Z,10.35
2023-02-19T21:43:45.410Z,8.77
2023-02-19T21:46:11.857Z,11.63
2023-02-19T21:48:38.114Z,13.43
2023-02-19T21:51:04.239Z,6.50
2023-02-19T21:53:30.374Z,12.20
2023-02-19T21:55:58.851Z,7.55
2023-02-19T21:58:25.229Z,12.25
2023-02-19T22:00:51.402Z,12.18
2023-02-19T22:03:17.599Z,9.50
2023-02-19T22:05:43.802Z,8.23
2023-02-19T22:08:10.007Z,12.25
2023-02-19T22:10:36.211Z,6.88
2023-02-19T22:13:02.343Z,7.93
2023-02-19T22:15:28.492Z,10.82
2023-02-19T22:17:54.640Z,5.47
2023-02-19T22:20:20.793Z,12.70
2023-02-19T22:22:46.922Z,11.05
2023-02-19T22:25:13.154Z,11.10
2023-02-19T22:27:39.300Z,10.57
2023-02-19T22:30:05.849Z,6.97
2023-02-19T22:32:32.200Z,10.02
2023-02-19T22:34:58.502Z,19.08
2023-02-19T22:37:24.663Z,10.13
2023-02-19T22:39:50.841Z,10.38
2023-02-19T22:42:17.003Z,8.60
2023-02-19T22:44:43.148Z,10.82
2023-02-19T22:47:09.317Z,12.02
2023-02-19T22:49:35.493Z,10.15
2023-02-19T22:52:01.675Z,10.38
2023-02-19T22:54:27.851Z,7.70
2023-02-19T22:56:54.050Z,9.35
2023-02-19T22:59:20.225Z,10.82
2023-02-19T23:01:46.431Z,9.98
2023-02-19T23:04:12.662Z,5.25
2023-02-19T23:06:38.799Z,16.05
2023-02-19T23:09:04.955Z,8.98
2023-02-19T23:11:31.141Z,10.13
2023-02-19T23:13:57.355Z,10.13
2023-02-19T23:16:23.613Z,10.32
2023-02-19T23:18:49.839Z,9.80
2023-02-19T23:21:16.018Z,7.00
2023-02-19T23:23:42.212Z,9.20
2023-02-19T23:26:08.343Z,6.82
2023-02-19T23:28:34.549Z,7.22
2023-02-19T23:31:00.773Z,11.30
2023-02-19T23:33:27.047Z,10.32
2023-02-19T23:35:53.215Z,7.97
2023-02-19T23:38:19.958Z,11.75
2023-02-19T23:40:46.086Z,11.38
2023-02-19T23:43:12.245Z,8.43
2023-02-19T23:45:38.433Z,13.15
2023-02-19T23:48:04.610Z,8.07
2023-02-19T23:50:30.887Z,5.82
2023-02-19T23:52:57.088Z,8.35
2023-02-19T23:55:23.217Z,9.32
2023-02-19T23:57:49.415Z,10.07
